Time;durP1;ratioP1;P1;durP2;ratioP2;P2;SDS_P1;SDS_P2;PMS_P1;PMS_P2;Temp;Humidity;BMP_temperature;BMP_pressure;BME280_temperature;BME280_humidity;BME280_pressure;Samples;Min_cycle;Max_cycle;Signal;HPM_P1;HPM_P2
2022/12/19 00:01:35;;;;;;;93.25;44.95;;;-8.00;99.90;;;;;;5081588;28;20222;-84
2022/12/19 00:04:04;;;;;;;105.72;45.13;;;-8.00;99.90;;;;;;5076707;28;20201;-83
2022/12/19 00:06:35;;;;;;;98.60;46.25;;;-8.00;99.90;;;;;;5097159;28;20441;-82
2022/12/19 00:09:02;;;;;;;93.95;47.15;;;-8.00;99.90;;;;;;5099449;28;20228;-83
2022/12/19 00:11:29;;;;;;;97.95;45.15;;;-8.00;99.90;;;;;;5084867;28;20207;-84
2022/12/19 00:13:57;;;;;;;98.45;48.15;;;-8.10;99.90;;;;;;5097137;28;20434;-82
2022/12/19 00:16:27;;;;;;;103.28;46.47;;;-8.10;99.90;;;;;;5085111;28;20244;-82
2022/12/19 00:18:58;;;;;;;101.10;48.10;;;-8.10;99.90;;;;;;5065508;28;20199;-86
2022/12/19 00:21:27;;;;;;;80.15;38.55;;;-8.20;99.90;;;;;;5083168;28;20256;-84
2022/12/19 00:23:55;;;;;;;97.25;46.25;;;-8.10;99.90;;;;;;5073035;28;20473;-84
2022/12/19 00:26:30;;;;;;;97.90;46.60;;;-8.20;99.90;;;;;;5083102;28;20199;-84
2022/12/19 00:29:03;;;;;;;92.30;46.47;;;-8.20;99.90;;;;;;5088314;28;20202;-83
2022/12/19 00:31:36;;;;;;;91.53;45.38;;;-8.20;99.90;;;;;;5083035;28;20206;-86
2022/12/19 00:34:03;;;;;;;114.20;51.38;;;-8.10;99.90;;;;;;5095597;28;20198;-84
2022/12/19 00:36:33;;;;;;;98.18;41.95;;;-8.00;99.90;;;;;;5093600;28;20236;-83
2022/12/19 00:39:01;;;;;;;108.95;49.45;;;-8.00;99.90;;;;;;5083001;28;20199;-82
2022/12/19 00:41:36;;;;;;;109.03;44.65;;;-8.10;99.90;;;;;;5083622;28;20232;-82
2022/12/19 00:44:10;;;;;;;78.13;39.83;;;-8.20;99.90;;;;;;5084663;28;20245;-83
2022/12/19 00:46:38;;;;;;;95.72;44.25;;;-8.20;99.90;;;;;;5084119;28;20233;-82
2022/12/19 00:49:05;;;;;;;102.43;48.33;;;-8.20;99.90;;;;;;5065585;28;20425;-85
2022/12/19 00:51:35;;;;;;;88.55;42.50;;;-8.20;99.90;;;;;;5082434;28;20219;-83
2022/12/19 00:54:02;;;;;;;101.00;46.28;;;-8.10;99.90;;;;;;5082643;28;20203;-81
2022/12/19 00:56:34;;;;;;;95.38;43.35;;;-8.10;99.90;;;;;;5083231;28;20211;-83
2022/12/19 00:59:05;;;;;;;86.93;42.88;;;-8.10;99.90;;;;;;5090876;28;20210;-83
2022/12/19 01:01:35;;;;;;;72.75;38.72;;;-8.20;99.90;;;;;;5095127;28;20232;-83
2022/12/19 01:04:05;;;;;;;99.05;42.28;;;-8.20;99.90;;;;;;5062761;28;20192;-83
2022/12/19 01:06:51;;;;;;;95.85;45.22;;;-8.20;99.90;;;;;;5061067;28;20549;-84
2022/12/19 01:09:20;;;;;;;92.82;42.47;;;-8.20;99.90;;;;;;5082824;28;20210;-82
2022/12/19 01:14:33;;;;;;;86.10;36.67;;;-8.20;99.90;;;;;;5082924;28;20494;-82
2022/12/19 01:17:00;;;;;;;81.70;39.78;;;-8.30;99.90;;;;;;5082443;28;20203;-82
2022/12/19 01:19:27;;;;;;;83.07;40.72;;;;;;;;;;5082539;28;20199;-85
2022/12/19 01:21:55;;;;;;;112.00;42.78;;;-8.30;99.90;;;;;;5082494;28;20249;-84
2022/12/19 01:24:22;;;;;;;98.22;40.55;;;;;;;;;;5089108;28;20199;-82
2022/12/19 01:26:50;;;;;;;81.40;40.58;;;;;;;;;;5084126;28;20198;-83
2022/12/19 01:29:18;;;;;;;93.95;44.53;;;;;;;;;;5086793;28;20379;-84
2022/12/19 01:31:45;;;;;;;115.30;49.65;;;;;;;;;;5086038;28;20515;-84
2022/12/19 01:34:12;;;;;;;132.60;50.60;;;;;;;;;;5072067;28;20195;-83
2022/12/19 01:36:39;;;;;;;114.88;48.30;;;;;;;;;;5085704;28;20389;-84
2022/12/19 01:39:07;;;;;;;106.60;48.40;;;;;;;;;;5091135;28;20237;-83
2022/12/19 01:41:34;;;;;;;81.80;44.67;;;;;;;;;;5093586;28;20222;-86
2022/12/19 01:44:05;;;;;;;106.05;47.05;;;-8.00;99.90;;;;;;5086332;28;20245;-84
2022/12/19 01:46:35;;;;;;;90.03;43.10;;;-8.10;99.90;;;;;;5085902;28;20413;-83
2022/12/19 01:49:05;;;;;;;94.47;43.50;;;-8.10;99.90;;;;;;5087550;28;20534;-83
2022/12/19 01:51:39;;;;;;;102.32;42.22;;;-8.10;99.90;;;;;;5108785;28;20182;-84
2022/12/19 01:54:14;;;;;;;106.28;48.42;;;-8.00;99.90;;;;;;5105156;28;20187;-88
2022/12/19 01:56:46;;;;;;;113.47;48.28;;;-8.20;99.90;;;;;;5102549;28;20194;-86
2022/12/19 01:59:21;;;;;;;109.45;48.60;;;-8.20;99.90;;;;;;5099423;28;20236;-85
2022/12/19 02:01:55;;;;;;;113.75;49.95;;;-8.20;99.90;;;;;;5109875;28;20206;-86
2022/12/19 02:04:26;;;;;;;107.93;49.53;;;-10.10;99.90;;;;;;5099225;28;20219;-87
2022/12/19 02:06:59;;;;;;;98.70;47.95;;;-8.40;99.90;;;;;;5078637;28;20526;-84
2022/12/19 02:09:41;;;;;;;104.25;44.47;;;;;;;;;;5086885;28;20199;-84
2022/12/19 02:12:09;;;;;;;118.93;56.20;;;;;;;;;;5073640;28;20738;-84
2022/12/19 02:14:36;;;;;;;118.22;52.05;;;;;;;;;;5075314;28;20198;-83
2022/12/19 02:17:24;;;;;;;109.13;51.15;;;-8.20;99.90;;;;;;5075802;28;20199;-82
2022/12/19 02:20:22;;;;;;;118.57;49.05;;;-8.20;99.90;;;;;;5085329;28;20192;-82
2022/12/19 02:23:17;;;;;;;88.18;46.97;;;-8.10;99.90;;;;;;5084829;28;20195;-83
2022/12/19 02:25:59;;;;;;;96.85;47.22;;;-8.10;99.90;;;;;;5105469;28;20193;-83
2022/12/19 02:28:46;;;;;;;97.07;52.03;;;-8.10;99.90;;;;;;5082116;28;20198;-84
2022/12/19 02:31:13;;;;;;;122.78;53.95;;;;;;;;;;5076774;28;20207;-83
2022/12/19 02:33:45;;;;;;;103.03;50.70;;;-8.00;99.90;;;;;;5067725;28;20211;-83
2022/12/19 02:36:20;;;;;;;119.85;53.20;;;-8.20;99.90;;;;;;5086105;28;20498;-83
2022/12/19 02:38:55;;;;;;;103.35;50.35;;;-8.00;99.90;;;;;;5092866;28;20199;-84
2022/12/19 02:41:28;;;;;;;107.82;49.22;;;-8.00;99.90;;;;;;5076290;28;20425;-83
2022/12/19 02:43:57;;;;;;;108.40;49.08;;;-7.90;99.90;;;;;;5092217;28;20240;-83
2022/12/19 02:46:27;;;;;;;130.25;54.40;;;-7.90;99.90;;;;;;5086812;28;20230;-83
2022/12/19 02:48:54;;;;;;;110.35;54.22;;;;;;;;;;5081334;28;20195;-82
2022/12/19 02:51:21;;;;;;;111.00;49.88;;;;;;;;;;5071322;28;20245;-83
2022/12/19 02:53:49;;;;;;;115.00;52.13;;;;;;;;;;5092251;28;20221;-83
2022/12/19 02:56:17;;;;;;;111.55;48.08;;;;;;;;;;5093640;28;20207;-84
2022/12/19 02:59:05;;;;;;;118.57;50.80;;;-7.90;99.90;;;;;;5097684;28;20211;-83
2022/12/19 03:01:44;;;;;;;131.70;52.67;;;-8.30;99.90;;;;;;5075521;28;20215;-84
2022/12/19 03:04:44;;;;;;;102.20;50.15;;;-7.00;99.90;;;;;;5073394;28;20338;-81
2022/12/19 03:07:20;;;;;;;101.15;47.10;;;-8.00;99.90;;;;;;5103620;28;20198;-82
2022/12/19 03:10:07;;;;;;;83.30;44.33;;;-8.10;99.90;;;;;;5105885;28;20232;-82
2022/12/19 03:12:49;;;;;;;92.90;45.25;;;-8.00;99.90;;;;;;5106028;28;20186;-81
2022/12/19 03:15:16;;;;;;;123.40;49.83;;;;;;;;;;5090848;28;20417;-83
2022/12/19 03:17:43;;;;;;;115.38;48.78;;;;;;;;;;5067673;28;20199;-84
2022/12/19 03:20:24;;;;;;;115.70;51.42;;;-8.00;99.90;;;;;;5085641;28;20486;-84
2022/12/19 03:22:52;;;;;;;107.85;48.72;;;;;;;;;;5099814;28;20222;-83
2022/12/19 03:25:21;;;;;;;100.00;46.33;;;-4.40;99.90;;;;;;5085739;28;20544;-82
2022/12/19 03:27:50;;;;;;;103.35;47.10;;;-8.00;99.90;;;;;;5085623;28;20414;-84
2022/12/19 03:30:18;;;;;;;97.60;43.90;;;;;;;;;;5094022;28;20317;-82
2022/12/19 03:32:46;;;;;;;105.40;49.60;;;-8.00;99.90;;;;;;5093990;28;20232;-84
2022/12/19 03:35:21;;;;;;;108.97;51.83;;;-8.00;99.90;;;;;;5066116;28;20203;-83
2022/12/19 03:37:51;;;;;;;105.50;49.22;;;-8.00;99.90;;;;;;5065378;28;20253;-83
2022/12/19 03:40:23;;;;;;;78.95;44.28;;;-8.00;99.90;;;;;;5072643;28;20214;-83
2022/12/19 03:43:08;;;;;;;95.55;49.97;;;-8.00;99.90;;;;;;5085355;28;20210;-84
2022/12/19 03:45:58;;;;;;;73.80;35.10;;;-7.90;99.90;;;;;;5085727;28;20233;-83
2022/12/19 03:48:45;;;;;;;101.85;49.10;;;-7.90;99.90;;;;;;5086524;28;20189;-83
2022/12/19 03:51:36;;;;;;;114.82;50.60;;;-7.70;99.90;;;;;;5086632;28;20202;-83
2022/12/19 03:54:14;;;;;;;100.60;46.97;;;-7.70;99.90;;;;;;5086348;28;20187;-85
2022/12/19 03:56:54;;;;;;;108.38;50.50;;;-7.80;99.90;;;;;;5075899;28;20202;-84
2022/12/19 03:59:35;;;;;;;102.30;46.17;;;-7.90;99.90;;;;;;5094497;28;20489;-83
2022/12/19 04:02:03;;;;;;;116.72;56.13;;;-7.80;99.90;;;;;;5098850;28;20211;-84
2022/12/19 04:04:35;;;;;;;93.85;46.03;;;-7.90;99.90;;;;;;5100219;28;20218;-85
2022/12/19 04:07:06;;;;;;;98.90;53.55;;;-7.80;99.90;;;;;;5097244;28;20187;-84
2022/12/19 04:09:35;;;;;;;92.07;45.88;;;-7.90;99.90;;;;;;5078635;28;20203;-84
2022/12/19 04:12:08;;;;;;;95.40;45.72;;;-7.90;99.90;;;;;;5086037;28;20241;-84
2022/12/19 04:14:37;;;;;;;106.20;48.55;;;-7.90;99.90;;;;;;5067750;28;20187;-83
2022/12/19 04:17:11;;;;;;;100.80;46.55;;;-7.80;99.90;;;;;;5084604;28;20203;-84
2022/12/19 04:20:04;;;;;;;121.13;54.60;;;-7.80;99.90;;;;;;5067048;28;20202;-84
2022/12/19 04:22:53;;;;;;;117.32;53.00;;;-7.80;99.90;;;;;;5060663;28;20226;-83
2022/12/19 04:25:29;;;;;;;113.78;53.08;;;-7.70;99.90;;;;;;5083651;28;20202;-83
2022/12/19 04:28:02;;;;;;;84.80;42.33;;;-7.70;99.90;;;;;;5077291;28;20210;-84
2022/12/19 04:30:29;;;;;;;92.25;42.55;;;-7.60;99.90;;;;;;5078257;28;20202;-83
2022/12/19 04:33:02;;;;;;;110.82;50.13;;;-7.60;99.90;;;;;;5083992;28;20232;-82
2022/12/19 04:35:30;;;;;;;107.13;51.00;;;-7.60;99.90;;;;;;5083853;28;20211;-83
2022/12/19 04:37:57;;;;;;;105.10;51.97;;;-7.60;99.90;;;;;;5083832;28;20526;-83
2022/12/19 04:40:24;;;;;;;107.90;51.53;;;-7.50;99.90;;;;;;5065879;28;20210;-82
2022/12/19 04:42:51;;;;;;;92.63;45.50;;;-7.50;99.90;;;;;;5084473;28;20230;-82
2022/12/19 04:45:19;;;;;;;87.72;45.35;;;-7.50;99.90;;;;;;5084847;28;20210;-83
2022/12/19 04:47:46;;;;;;;100.43;46.17;;;-7.40;99.90;;;;;;5084083;28;20282;-82
2022/12/19 04:50:13;;;;;;;100.63;45.20;;;-7.40;99.90;;;;;;5084075;28;20202;-83
2022/12/19 04:52:40;;;;;;;98.07;43.05;;;-7.40;99.90;;;;;;5095128;28;20198;-82
2022/12/19 04:55:08;;;;;;;97.80;42.25;;;-7.40;99.90;;;;;;5083257;28;20195;-81
2022/12/19 04:57:35;;;;;;;96.38;45.42;;;-7.40;99.90;;;;;;5083316;28;20385;-80
2022/12/19 05:00:05;;;;;;;86.15;42.00;;;-7.30;99.90;;;;;;5083312;28;20219;-84
2022/12/19 05:02:36;;;;;;;84.43;41.65;;;-7.40;99.90;;;;;;5095622;28;20222;-82
2022/12/19 05:05:04;;;;;;;96.45;41.20;;;-7.50;99.90;;;;;;5090966;28;20217;-82
2022/12/19 05:07:31;;;;;;;77.60;38.25;;;-7.40;99.90;;;;;;5099708;28;20202;-83
2022/12/19 05:09:58;;;;;;;73.38;38.60;;;-7.30;99.90;;;;;;5104818;28;20198;-82
2022/12/19 05:12:27;;;;;;;85.18;37.42;;;-7.40;99.90;;;;;;5086474;28;20498;-81
2022/12/19 05:14:54;;;;;;;86.20;42.17;;;-7.40;99.90;;;;;;5087674;28;20268;-81
2022/12/19 05:17:22;;;;;;;102.10;38.17;;;-7.30;99.90;;;;;;5106958;28;20198;-82
2022/12/19 05:19:49;;;;;;;70.30;35.85;;;;;;;;;;5080910;28;20617;-80
2022/12/19 05:22:16;;;;;;;84.85;38.35;;;-5.10;99.90;;;;;;5078710;28;20227;-80
2022/12/19 05:24:44;;;;;;;79.60;34.40;;;-7.30;99.90;;;;;;5090926;28;20199;-82
2022/12/19 05:27:11;;;;;;;77.65;40.88;;;-7.20;99.90;;;;;;5091634;28;20211;-83
2022/12/19 05:29:41;;;;;;;76.63;39.10;;;-7.20;99.90;;;;;;5079522;28;20589;-82
2022/12/19 05:32:08;;;;;;;92.65;38.83;;;-7.20;99.90;;;;;;5091652;28;20214;-83
2022/12/19 05:34:34;;;;;;;75.78;38.47;;;-7.20;99.90;;;;;;5106647;28;20210;-85
2022/12/19 05:37:04;;;;;;;84.00;43.05;;;-7.20;99.90;;;;;;5072618;28;20222;-84
2022/12/19 05:39:31;;;;;;;71.25;36.17;;;-7.20;99.90;;;;;;5106072;28;20205;-82
2022/12/19 05:41:58;;;;;;;77.38;43.03;;;;;;;;;;5088763;28;20250;-82
2022/12/19 05:44:25;;;;;;;86.90;42.92;;;-7.10;99.90;;;;;;5077886;28;20198;-82
2022/12/19 05:46:53;;;;;;;77.40;32.72;;;;;;;;;;5088589;28;20199;-84
2022/12/19 05:49:20;;;;;;;80.80;38.72;;;;;;;;;;5086197;28;20226;-83
2022/12/19 05:51:51;;;;;;;80.65;39.67;;;-7.00;99.90;;;;;;5056085;28;20195;-84
2022/12/19 05:54:19;;;;;;;79.07;40.70;;;-7.00;99.90;;;;;;5091343;28;20195;-84
2022/12/19 05:56:45;;;;;;;92.38;44.47;;;-7.10;99.90;;;;;;5088502;28;20237;-82
2022/12/19 05:59:13;;;;;;;78.45;42.17;;;-7.10;99.90;;;;;;5089281;28;20290;-84
2022/12/19 06:01:40;;;;;;;90.22;43.80;;;;;;;;;;5097596;28;20222;-85
2022/12/19 06:04:09;;;;;;;84.30;43.65;;;;;;;;;;5095140;28;20217;-85
2022/12/19 06:06:37;;;;;;;78.78;37.88;;;;;;;;;;5101167;28;20203;-86
2022/12/19 06:09:04;;;;;;;93.88;46.78;;;-7.00;99.90;;;;;;5086564;28;20183;-87
2022/12/19 06:11:31;;;;;;;75.57;39.13;;;-7.10;99.90;;;;;;5097014;28;20199;-83
2022/12/19 06:13:58;;;;;;;83.15;40.95;;;-7.00;99.90;;;;;;5097288;28;20191;-83
2022/12/19 06:16:25;;;;;;;79.80;40.72;;;;;;;;;;5089956;28;20203;-83
2022/12/19 06:18:53;;;;;;;86.68;38.90;;;-6.80;99.90;;;;;;5088643;28;20552;-86
2022/12/19 06:21:22;;;;;;;65.97;38.58;;;-6.80;99.90;;;;;;5092121;28;20244;-84
2022/12/19 06:23:49;;;;;;;91.97;41.20;;;-6.80;99.90;;;;;;5086679;28;20206;-84
2022/12/19 06:26:18;;;;;;;82.63;39.47;;;-6.70;99.90;;;;;;5072312;28;20198;-83
2022/12/19 06:28:47;;;;;;;72.50;34.17;;;-6.80;99.90;;;;;;5088145;28;20283;-84
2022/12/19 06:31:15;;;;;;;77.30;36.05;;;;;;;;;;5086783;28;20203;-84
2022/12/19 06:33:43;;;;;;;78.05;37.97;;;;;;;;;;5093716;28;20202;-86
2022/12/19 06:36:22;;;;;;;93.40;42.65;;;-6.70;99.90;;;;;;5094745;28;20206;-83
2022/12/19 06:38:50;;;;;;;77.20;39.80;;;-6.60;99.90;;;;;;5094641;28;20194;-83
2022/12/19 06:44:05;;;;;;;70.68;36.78;;;;;;;;;;5085955;28;20478;-83
2022/12/19 06:46:33;;;;;;;79.20;37.65;;;-6.40;99.90;;;;;;5086826;28;20494;-85
2022/12/19 06:49:01;;;;;;;79.18;37.17;;;-6.50;99.90;;;;;;5082841;28;20253;-83
2022/12/19 06:51:28;;;;;;;75.43;35.72;;;-6.40;99.90;;;;;;5067129;28;20256;-87
2022/12/19 06:53:55;;;;;;;76.60;34.63;;;-6.40;99.90;;;;;;5095667;28;20207;-84
2022/12/19 06:56:23;;;;;;;79.35;38.97;;;-6.40;99.90;;;;;;5085783;28;20233;-88
2022/12/19 06:58:50;;;;;;;66.25;34.70;;;-6.40;99.90;;;;;;5093334;28;20203;-88
2022/12/19 07:01:44;;;;;;;68.20;35.88;;;-6.30;99.90;;;;;;5060626;28;20570;-85
2022/12/19 07:04:17;;;;;;;65.55;32.80;;;-6.40;99.90;;;;;;5006248;28;20385;-84
2022/12/19 07:06:45;;;;;;;68.82;36.15;;;-6.30;99.90;;;;;;5009444;28;20338;-85
2022/12/19 07:09:15;;;;;;;66.20;36.45;;;-6.10;99.90;;;;;;5075052;28;20202;-84
2022/12/19 07:11:42;;;;;;;77.68;36.50;;;-6.20;99.90;;;;;;5010586;28;20401;-90
2022/12/19 07:14:10;;;;;;;68.53;32.90;;;;;;;;;;4994285;28;20218;-84
2022/12/19 07:16:37;;;;;;;66.10;34.42;;;-6.30;99.90;;;;;;4998835;28;20259;-85
2022/12/19 07:19:06;;;;;;;70.25;36.25;;;-6.20;99.90;;;;;;5005912;28;20204;-84
2022/12/19 07:21:35;;;;;;;71.20;34.53;;;-6.10;99.90;;;;;;4995114;28;20282;-85
2022/12/19 07:24:03;;;;;;;81.53;33.38;;;-6.10;99.90;;;;;;4988885;28;20203;-84
2022/12/19 07:26:31;;;;;;;67.25;35.13;;;-6.10;99.90;;;;;;4997559;28;20254;-88
2022/12/19 07:28:58;;;;;;;64.20;31.45;;;-6.00;99.90;;;;;;5019664;28;20232;-84
2022/12/19 07:31:25;;;;;;;73.22;36.85;;;-6.00;99.90;;;;;;5009123;28;20206;-84
2022/12/19 07:33:53;;;;;;;78.80;36.00;;;;;;;;;;5065975;28;20197;-85
2022/12/19 07:36:19;;;;;;;57.00;31.15;;;-5.80;99.90;;;;;;5001900;28;20210;-84
2022/12/19 07:38:47;;;;;;;66.60;34.40;;;-5.80;99.90;;;;;;5018335;28;20198;-83
2022/12/19 07:41:13;;;;;;;76.45;36.45;;;-5.80;99.90;;;;;;5001637;28;20233;-84
2022/12/19 07:43:41;;;;;;;68.68;39.63;;;-5.60;99.90;;;;;;4998732;28;20525;-85
2022/12/19 07:46:07;;;;;;;69.15;35.80;;;-5.60;99.90;;;;;;4999270;28;20209;-83
2022/12/19 07:48:34;;;;;;;79.63;34.00;;;-5.40;99.90;;;;;;4998457;28;20488;-86
2022/12/19 07:51:04;;;;;;;64.55;31.48;;;-5.30;99.90;;;;;;5000203;28;20263;-84
2022/12/19 07:53:31;;;;;;;70.35;32.70;;;-5.30;99.90;;;;;;5057342;28;20380;-82
2022/12/19 07:55:58;;;;;;;65.28;32.15;;;-4.40;99.90;;;;;;5001718;28;20292;-85
2022/12/19 07:58:25;;;;;;;54.58;31.02;;;-5.20;99.90;;;;;;5005020;28;20206;-84
2022/12/19 08:00:56;;;;;;;68.82;35.10;;;-5.00;99.90;;;;;;5008369;28;20231;-84
2022/12/19 08:03:24;;;;;;;65.40;31.02;;;-4.80;99.90;;;;;;5003954;28;20252;-84
2022/12/19 08:05:51;;;;;;;78.68;35.45;;;-4.70;99.90;;;;;;4991251;28;20272;-86
2022/12/19 08:08:19;;;;;;;58.58;31.15;;;-4.60;99.90;;;;;;5001732;28;20202;-85
2022/12/19 08:10:46;;;;;;;57.70;31.50;;;-4.60;99.90;;;;;;5006492;28;20213;-87
2022/12/19 08:13:13;;;;;;;55.90;31.60;;;-4.30;99.90;;;;;;5002269;28;20259;-86
2022/12/19 08:15:40;;;;;;;60.38;31.00;;;-4.30;99.90;;;;;;4999442;28;20280;-85
2022/12/19 08:18:07;;;;;;;56.08;29.33;;;-4.10;99.90;;;;;;4999271;28;20243;-84
2022/12/19 08:20:34;;;;;;;59.30;30.45;;;-4.00;99.90;;;;;;5001531;28;20260;-83
2022/12/19 08:23:01;;;;;;;49.97;28.95;;;-3.80;99.90;;;;;;5000665;28;20233;-83
2022/12/19 08:25:28;;;;;;;59.65;29.13;;;-3.70;99.90;;;;;;5004225;28;20279;-88
2022/12/19 08:27:55;;;;;;;56.90;32.00;;;-3.60;99.90;;;;;;5009809;28;20437;-84
2022/12/19 08:30:23;;;;;;;64.38;30.25;;;;;;;;;;5010715;28;20501;-84
2022/12/19 08:32:50;;;;;;;56.97;29.95;;;-3.20;99.90;;;;;;4999312;28;20434;-84
2022/12/19 08:35:17;;;;;;;50.78;29.33;;;-3.20;99.90;;;;;;4999198;28;20439;-84
2022/12/19 08:37:44;;;;;;;44.85;26.58;;;-2.80;99.90;;;;;;5071733;28;20502;-84
2022/12/19 08:40:11;;;;;;;48.30;29.83;;;-3.00;99.90;;;;;;5005882;28;20218;-86
2022/12/19 08:42:39;;;;;;;49.72;28.67;;;-2.20;99.90;;;;;;5084818;28;20730;-87
2022/12/19 08:45:07;;;;;;;52.17;25.55;;;-3.00;99.90;;;;;;5005897;28;20219;-86
2022/12/19 08:47:33;;;;;;;47.63;29.30;;;-2.90;99.90;;;;;;5080000;28;20198;-88
2022/12/19 08:50:02;;;;;;;62.70;30.02;;;-3.10;99.90;;;;;;5014126;28;20239;-86
2022/12/19 08:52:30;;;;;;;53.10;27.08;;;-2.90;99.90;;;;;;5014511;28;20227;-85
2022/12/19 08:54:56;;;;;;;56.10;29.55;;;-3.10;99.90;;;;;;5004564;28;20251;-84
2022/12/19 08:57:23;;;;;;;46.90;28.90;;;-3.10;99.90;;;;;;5002509;28;20201;-85
2022/12/19 08:59:50;;;;;;;59.20;29.85;;;-3.20;99.90;;;;;;4999481;28;20505;-86
2022/12/19 09:02:18;;;;;;;47.85;28.02;;;-3.20;99.90;;;;;;4999727;28;20256;-84
2022/12/19 09:04:45;;;;;;;54.78;28.63;;;-3.20;99.90;;;;;;4998693;28;20247;-85
2022/12/19 09:07:35;;;;;;;51.90;26.50;;;-3.20;99.90;;;;;;4997678;28;20210;-85
2022/12/19 09:10:05;;;;;;;48.67;28.27;;;-3.20;99.90;;;;;;4998435;28;20419;-84
2022/12/19 09:12:32;;;;;;;75.47;35.83;;;-3.10;99.90;;;;;;5073188;28;20209;-83
2022/12/19 09:14:59;;;;;;;51.00;29.73;;;-3.10;99.90;;;;;;5000014;28;20521;-84
2022/12/19 09:17:27;;;;;;;49.53;29.52;;;-3.10;99.90;;;;;;4999657;28;20717;-84
2022/12/19 09:19:55;;;;;;;59.55;32.08;;;-3.10;99.90;;;;;;5083999;28;20209;-82
2022/12/19 09:22:22;;;;;;;64.63;29.08;;;-3.10;99.90;;;;;;5000259;28;20201;-83
2022/12/19 09:24:56;;;;;;;52.25;28.23;;;-3.00;99.90;;;;;;4989250;28;20541;-81
2022/12/19 09:27:23;;;;;;;44.83;27.83;;;-2.80;99.90;;;;;;5006497;28;20247;-82
2022/12/19 09:29:50;;;;;;;42.85;26.27;;;-2.70;99.90;;;;;;5000954;28;20209;-84
2022/12/19 09:32:17;;;;;;;41.08;24.73;;;-2.60;99.90;;;;;;5083978;28;20501;-82
2022/12/19 09:34:44;;;;;;;45.40;25.33;;;-2.50;99.90;;;;;;5000233;28;20207;-83
2022/12/19 09:37:11;;;;;;;47.67;26.13;;;-2.30;99.90;;;;;;5000007;28;20271;-81
2022/12/19 09:39:45;;;;;;;47.78;26.63;;;-2.20;99.90;;;;;;4999441;28;20526;-83
2022/12/19 09:42:21;;;;;;;51.30;26.05;;;-1.90;99.90;;;;;;5000183;28;20208;-82
2022/12/19 09:44:54;;;;;;;55.78;28.45;;;-1.90;99.90;;;;;;4999532;28;20269;-84
2022/12/19 09:47:25;;;;;;;46.38;27.30;;;-1.80;99.90;;;;;;5031336;28;20213;-82
2022/12/19 09:49:55;;;;;;;47.70;24.40;;;-1.80;99.90;;;;;;4999706;28;20194;-86
2022/12/19 09:52:36;;;;;;;49.25;25.52;;;-1.80;99.90;;;;;;5001331;28;20197;-83
2022/12/19 09:55:21;;;;;;;39.63;22.60;;;-1.60;99.90;;;;;;5067283;28;20228;-85
2022/12/19 09:58:14;;;;;;;44.30;27.17;;;-1.50;99.90;;;;;;4995314;28;20240;-85
2022/12/19 10:00:46;;;;;;;46.47;22.45;;;-1.50;99.90;;;;;;5000614;28;20206;-85
2022/12/19 10:03:33;;;;;;;35.42;22.17;;;-1.40;99.90;;;;;;5020368;28;20225;-82
2022/12/19 10:06:16;;;;;;;45.50;25.52;;;-1.30;99.90;;;;;;4993453;28;20194;-82
2022/12/19 10:09:03;;;;;;;38.25;21.48;;;-1.10;99.90;;;;;;4986514;28;20257;-83
2022/12/19 10:12:42;;;;;;;34.88;20.60;;;-1.20;99.90;;;;;;4998836;28;20198;-82
2022/12/19 10:15:42;;;;;;;41.05;22.65;;;-1.10;99.90;;;;;;5015514;28;20197;-82
2022/12/19 10:18:53;;;;;;;37.72;22.80;;;-1.00;99.90;;;;;;4995238;28;20245;-83
2022/12/19 10:21:32;;;;;;;49.45;27.52;;;-0.90;99.90;;;;;;4997581;28;20213;-84
2022/12/19 10:24:31;;;;;;;36.70;19.88;;;-0.90;99.90;;;;;;4989096;28;20563;-82
2022/12/19 10:27:12;;;;;;;42.22;25.90;;;-0.80;99.90;;;;;;4997635;28;20206;-81
2022/12/19 10:30:13;;;;;;;40.20;22.70;;;-0.70;99.90;;;;;;5012326;28;20197;-83
2022/12/19 10:33:14;;;;;;;33.10;20.63;;;-0.60;99.90;;;;;;5001740;28;20193;-83
2022/12/19 10:35:56;;;;;;;44.17;24.05;;;-0.60;99.90;;;;;;5068272;28;20203;-82
2022/12/19 10:38:39;;;;;;;41.38;20.80;;;-0.50;99.90;;;;;;5000718;28;20234;-83
2022/12/19 10:41:24;;;;;;;35.40;22.20;;;-0.40;99.90;;;;;;4999755;28;20220;-83
2022/12/19 10:44:06;;;;;;;34.25;20.02;;;-0.20;99.90;;;;;;5000509;28;20217;-84
2022/12/19 10:46:45;;;;;;;35.90;21.60;;;-0.20;99.90;;;;;;5066816;28;20205;-84
2022/12/19 10:49:16;;;;;;;34.53;20.23;;;-0.10;99.90;;;;;;4999090;28;20739;-85
2022/12/19 10:52:00;;;;;;;30.75;19.33;;;-0.10;99.90;;;;;;4999439;28;20527;-83
2022/12/19 10:54:40;;;;;;;37.25;22.85;;;0.10;99.90;;;;;;5055136;28;20241;-81
2022/12/19 10:57:28;;;;;;;31.98;19.73;;;0.20;99.90;;;;;;5031360;28;20358;-81
2022/12/19 11:00:14;;;;;;;36.30;23.98;;;0.20;99.90;;;;;;4996679;28;20525;-82
2022/12/19 11:02:47;;;;;;;31.23;19.70;;;0.40;99.90;;;;;;4999022;28;20291;-82
2022/12/19 11:05:27;;;;;;;34.53;21.98;;;0.50;99.90;;;;;;4999575;28;20205;-84
2022/12/19 11:08:02;;;;;;;37.60;22.55;;;0.60;99.90;;;;;;4992779;28;20235;-84
2022/12/19 11:10:41;;;;;;;36.45;21.73;;;0.70;99.90;;;;;;4999493;28;20219;-84
2022/12/19 11:13:42;;;;;;;34.78;20.33;;;0.80;99.90;;;;;;4998053;28;20238;-82
2022/12/19 11:16:35;;;;;;;30.05;19.40;;;0.90;99.90;;;;;;5013212;28;20224;-84
2022/12/19 11:19:35;;;;;;;34.00;18.27;;;0.90;99.90;;;;;;4990315;28;20419;-82
2022/12/19 11:22:30;;;;;;;21.95;14.18;;;1.10;99.90;;;;;;5000527;28;20198;-81
2022/12/19 11:25:20;;;;;;;24.27;15.95;;;1.10;99.90;;;;;;5003700;28;20604;-86
2022/12/19 11:28:19;;;;;;;23.38;14.75;;;1.20;99.90;;;;;;4995755;28;20202;-83
2022/12/19 11:31:20;;;;;;;18.02;12.68;;;1.30;99.90;;;;;;5044267;28;20236;-84
2022/12/19 11:34:14;;;;;;;23.33;14.48;;;1.40;99.90;;;;;;5021287;28;20217;-81
2022/12/19 11:36:53;;;;;;;16.77;10.70;;;1.50;99.90;;;;;;4999312;28;20198;-81
2022/12/19 11:39:28;;;;;;;16.08;11.00;;;1.50;99.90;;;;;;5062007;28;20200;-81
2022/12/19 11:42:09;;;;;;;15.02;11.75;;;1.50;99.90;;;;;;5025577;28;20190;-84
2022/12/19 11:45:00;;;;;;;18.85;10.63;;;1.40;99.90;;;;;;4997367;28;20225;-83
2022/12/19 11:47:44;;;;;;;18.10;11.27;;;1.50;99.90;;;;;;4999574;28;20211;-87
2022/12/19 11:50:21;;;;;;;20.95;13.40;;;1.40;99.90;;;;;;4997934;28;20210;-84
2022/12/19 11:53:11;;;;;;;18.80;11.27;;;1.40;99.90;;;;;;5042846;28;20185;-84
2022/12/19 11:56:12;;;;;;;18.65;12.95;;;1.40;99.90;;;;;;4997890;28;20210;-86
2022/12/19 11:58:51;;;;;;;27.60;14.57;;;1.20;99.90;;;;;;5001201;28;20229;-85
2022/12/19 12:01:36;;;;;;;19.60;13.43;;;1.20;99.90;;;;;;5059965;28;20492;-82
2022/12/19 12:04:43;;;;;;;23.70;13.65;;;1.10;99.90;;;;;;4993796;28;20374;-83
2022/12/19 12:07:10;;;;;;;22.67;15.93;;;1.20;99.90;;;;;;4992263;28;20211;-82
2022/12/19 12:10:15;;;;;;;23.67;16.10;;;1.10;99.90;;;;;;5020867;28;20205;-83
2022/12/19 12:13:13;;;;;;;24.55;14.95;;;1.10;99.90;;;;;;4991753;28;20197;-85
2022/12/19 12:16:05;;;;;;;21.08;15.20;;;1.20;99.90;;;;;;4991520;28;20703;-84
2022/12/19 12:19:08;;;;;;;23.95;16.88;;;1.10;99.90;;;;;;4998225;28;20240;-84
2022/12/19 12:22:04;;;;;;;25.35;15.90;;;1.10;99.90;;;;;;4994903;28;20205;-85
2022/12/19 12:25:04;;;;;;;27.83;18.05;;;1.00;99.90;;;;;;5029004;28;20245;-85
2022/12/19 12:28:10;;;;;;;30.25;17.08;;;1.10;99.90;;;;;;4988470;28;20634;-87
2022/12/19 12:31:12;;;;;;;28.52;19.50;;;1.10;99.90;;;;;;4991373;28;20198;-86
2022/12/19 12:34:33;;;;;;;20.55;16.10;;;1.20;99.90;;;;;;5001759;28;20428;-85
2022/12/19 12:37:29;;;;;;;29.38;18.02;;;1.20;99.90;;;;;;4996899;28;20210;-84
2022/12/19 12:40:31;;;;;;;27.92;18.05;;;1.20;99.90;;;;;;4997798;28;20206;-81
2022/12/19 12:43:33;;;;;;;30.52;17.85;;;1.20;99.90;;;;;;4988439;28;20483;-85
2022/12/19 12:46:03;;;;;;;26.42;18.00;;;1.20;99.90;;;;;;4999787;28;20198;-85
2022/12/19 12:48:34;;;;;;;28.25;16.27;;;1.20;99.90;;;;;;5001706;28;20194;-86
2022/12/19 12:51:02;;;;;;;37.38;19.85;;;1.30;99.90;;;;;;4995225;28;20198;-85
2022/12/19 12:53:37;;;;;;;31.85;19.40;;;1.30;99.90;;;;;;5001598;28;20216;-85
2022/12/19 12:56:06;;;;;;;25.85;17.02;;;1.20;99.90;;;;;;5001094;28;20275;-83
2022/12/19 12:58:45;;;;;;;36.58;20.92;;;1.40;99.90;;;;;;4986567;28;20214;-85
2022/12/19 13:01:27;;;;;;;26.20;17.67;;;1.30;99.90;;;;;;5002776;28;20226;-84
2022/12/19 13:04:04;;;;;;;37.78;21.52;;;1.40;99.90;;;;;;5000171;28;20257;-83
2022/12/19 13:06:40;;;;;;;28.10;18.98;;;1.40;99.90;;;;;;5000295;28;20427;-83
2022/12/19 13:09:19;;;;;;;36.50;20.50;;;1.50;99.90;;;;;;5027862;28;20212;-85
2022/12/19 13:14:32;;;;;;;29.67;18.58;;;1.30;99.90;;;;;;5002056;28;20206;-87
2022/12/19 13:17:01;;;;;;;27.23;17.10;;;1.30;99.90;;;;;;5002313;28;20236;-86
2022/12/19 13:19:34;;;;;;;33.30;19.17;;;1.30;99.90;;;;;;5068686;28;20270;-84
2022/12/19 13:22:04;;;;;;;29.98;20.05;;;1.30;99.90;;;;;;5000350;28;20198;-87
2022/12/19 13:24:51;;;;;;;31.17;18.00;;;1.30;99.90;;;;;;5087216;28;20291;-89